sensor_id;sensor_type;location;lat;lon;timestamp;P1;durP1;ratioP1;P2;durP2;ratioP2
8293;SDS011;4185;41.506;24.938;2024-01-06T00:01:53;16.00;;;5.50;;
8293;SDS011;4185;41.506;24.938;2024-01-06T00:04:20;6.87;;;4.10;;
8293;SDS011;4185;41.506;24.938;2024-01-06T00:06:48;5.60;;;3.90;;
8293;SDS011;4185;41.506;24.938;2024-01-06T00:09:15;13.17;;;5.53;;
8293;SDS011;4185;41.506;24.938;2024-01-06T00:11:42;12.47;;;5.90;;
8293;SDS011;4185;41.506;24.938;2024-01-06T00:14:08;9.33;;;5.63;;
8293;SDS011;4185;41.506;24.938;2024-01-06T00:16:35;9.40;;;5.20;;
8293;SDS011;4185;41.506;24.938;2024-01-06T00:19:02;5.43;;;3.10;;
8293;SDS011;4185;41.506;24.938;2024-01-06T00:21:29;12.23;;;6.67;;
8293;SDS011;4185;41.506;24.938;2024-01-06T00:23:57;17.07;;;8.23;;
8293;SDS011;4185;41.506;24.938;2024-01-06T00:26:24;7.90;;;4.43;;
8293;SDS011;4185;41.506;24.938;2024-01-06T00:28:50;5.37;;;2.77;;
8293;SDS011;4185;41.506;24.938;2024-01-06T00:31:17;5.10;;;3.17;;
8293;SDS011;4185;41.506;24.938;2024-01-06T00:33:44;5.30;;;3.30;;
8293;SDS011;4185;41.506;24.938;2024-01-06T00:36:11;8.63;;;4.00;;
8293;SDS011;4185;41.506;24.938;2024-01-06T00:38:38;11.00;;;5.53;;
8293;SDS011;4185;41.506;24.938;2024-01-06T00:41:06;7.30;;;5.00;;
8293;SDS011;4185;41.506;24.938;2024-01-06T00:43:33;7.87;;;4.00;;
8293;SDS011;4185;41.506;24.938;2024-01-06T00:46:00;8.73;;;4.13;;
8293;SDS011;4185;41.506;24.938;2024-01-06T00:48:27;7.33;;;4.17;;
8293;SDS011;4185;41.506;24.938;2024-01-06T00:50:54;6.50;;;3.50;;
8293;SDS011;4185;41.506;24.938;2024-01-06T00:53:21;5.27;;;3.43;;
8293;SDS011;4185;41.506;24.938;2024-01-06T00:55:48;3.80;;;2.80;;
8293;SDS011;4185;41.506;24.938;2024-01-06T00:58:16;4.23;;;3.20;;
8293;SDS011;4185;41.506;24.938;2024-01-06T01:00:43;4.90;;;2.93;;
8293;SDS011;4185;41.506;24.938;2024-01-06T01:03:10;7.90;;;4.93;;
8293;SDS011;4185;41.506;24.938;2024-01-06T01:05:36;17.03;;;7.50;;
8293;SDS011;4185;41.506;24.938;2024-01-06T01:08:03;17.43;;;9.07;;
8293;SDS011;4185;41.506;24.938;2024-01-06T01:10:31;12.10;;;6.43;;
8293;SDS011;4185;41.506;24.938;2024-01-06T01:12:58;10.83;;;5.67;;
8293;SDS011;4185;41.506;24.938;2024-01-06T01:15:26;8.10;;;4.97;;
8293;SDS011;4185;41.506;24.938;2024-01-06T01:17:53;7.80;;;5.07;;
8293;SDS011;4185;41.506;24.938;2024-01-06T01:20:19;5.53;;;3.70;;
8293;SDS011;4185;41.506;24.938;2024-01-06T01:22:46;10.47;;;6.53;;
8293;SDS011;4185;41.506;24.938;2024-01-06T01:25:13;9.03;;;4.87;;
8293;SDS011;4185;41.506;24.938;2024-01-06T01:27:40;7.13;;;3.97;;
8293;SDS011;4185;41.506;24.938;2024-01-06T01:30:07;6.37;;;3.83;;
8293;SDS011;4185;41.506;24.938;2024-01-06T01:32:37;5.87;;;3.27;;
8293;SDS011;4185;41.506;24.938;2024-01-06T01:35:04;4.80;;;3.63;;
8293;SDS011;4185;41.506;24.938;2024-01-06T01:37:31;3.37;;;2.67;;
8293;SDS011;4185;41.506;24.938;2024-01-06T01:39:58;7.23;;;3.60;;
8293;SDS011;4185;41.506;24.938;2024-01-06T01:42:25;9.93;;;5.07;;
8293;SDS011;4185;41.506;24.938;2024-01-06T01:44:51;8.53;;;4.50;;
8293;SDS011;4185;41.506;24.938;2024-01-06T01:47:18;7.93;;;4.13;;
8293;SDS011;4185;41.506;24.938;2024-01-06T01:49:48;5.97;;;3.77;;
8293;SDS011;4185;41.506;24.938;2024-01-06T01:52:15;4.40;;;2.97;;
8293;SDS011;4185;41.506;24.938;2024-01-06T01:54:42;7.47;;;5.07;;
8293;SDS011;4185;41.506;24.938;2024-01-06T01:57:10;5.10;;;3.30;;
8293;SDS011;4185;41.506;24.938;2024-01-06T01:59:39;5.23;;;2.60;;
8293;SDS011;4185;41.506;24.938;2024-01-06T02:02:06;2.73;;;2.10;;
8293;SDS011;4185;41.506;24.938;2024-01-06T02:04:34;3.87;;;2.53;;
8293;SDS011;4185;41.506;24.938;2024-01-06T02:07:02;2.80;;;2.57;;
8293;SDS011;4185;41.506;24.938;2024-01-06T02:09:29;5.40;;;3.10;;
8293;SDS011;4185;41.506;24.938;2024-01-06T02:11:56;8.93;;;4.10;;
8293;SDS011;4185;41.506;24.938;2024-01-06T02:14:23;4.20;;;2.90;;
8293;SDS011;4185;41.506;24.938;2024-01-06T02:16:50;6.63;;;4.07;;
8293;SDS011;4185;41.506;24.938;2024-01-06T02:19:17;2.30;;;2.00;;
8293;SDS011;4185;41.506;24.938;2024-01-06T02:21:48;4.47;;;2.80;;
8293;SDS011;4185;41.506;24.938;2024-01-06T02:24:15;3.83;;;3.13;;
8293;SDS011;4185;41.506;24.938;2024-01-06T02:26:42;5.13;;;2.93;;
8293;SDS011;4185;41.506;24.938;2024-01-06T02:29:09;4.83;;;2.57;;
8293;SDS011;4185;41.506;24.938;2024-01-06T02:31:35;2.77;;;2.20;;
8293;SDS011;4185;41.506;24.938;2024-01-06T02:34:02;2.53;;;2.20;;
8293;SDS011;4185;41.506;24.938;2024-01-06T02:36:29;2.57;;;2.37;;
8293;SDS011;4185;41.506;24.938;2024-01-06T02:38:57;4.53;;;2.90;;
8293;SDS011;4185;41.506;24.938;2024-01-06T02:41:25;4.03;;;2.50;;
8293;SDS011;4185;41.506;24.938;2024-01-06T02:43:52;5.83;;;3.40;;
8293;SDS011;4185;41.506;24.938;2024-01-06T02:46:20;6.83;;;3.80;;
8293;SDS011;4185;41.506;24.938;2024-01-06T02:48:47;7.23;;;4.10;;
8293;SDS011;4185;41.506;24.938;2024-01-06T02:51:14;6.10;;;2.83;;
8293;SDS011;4185;41.506;24.938;2024-01-06T02:53:40;7.10;;;4.40;;
8293;SDS011;4185;41.506;24.938;2024-01-06T02:56:10;8.50;;;5.07;;
8293;SDS011;4185;41.506;24.938;2024-01-06T02:58:37;7.90;;;4.20;;
8293;SDS011;4185;41.506;24.938;2024-01-06T03:01:04;7.77;;;4.10;;
8293;SDS011;4185;41.506;24.938;2024-01-06T03:03:31;4.43;;;2.80;;
8293;SDS011;4185;41.506;24.938;2024-01-06T03:05:58;3.10;;;2.50;;
8293;SDS011;4185;41.506;24.938;2024-01-06T03:08:25;2.27;;;2.13;;
8293;SDS011;4185;41.506;24.938;2024-01-06T03:10:52;6.10;;;3.73;;
8293;SDS011;4185;41.506;24.938;2024-01-06T03:13:20;12.10;;;5.10;;
8293;SDS011;4185;41.506;24.938;2024-01-06T03:15:47;14.13;;;6.10;;
8293;SDS011;4185;41.506;24.938;2024-01-06T03:18:13;7.70;;;4.57;;
8293;SDS011;4185;41.506;24.938;2024-01-06T03:20:41;9.40;;;3.90;;
8293;SDS011;4185;41.506;24.938;2024-01-06T03:23:08;13.70;;;5.87;;
8293;SDS011;4185;41.506;24.938;2024-01-06T03:25:34;7.77;;;3.80;;
8293;SDS011;4185;41.506;24.938;2024-01-06T03:28:01;8.37;;;4.07;;
8293;SDS011;4185;41.506;24.938;2024-01-06T03:30:29;12.87;;;4.10;;
8293;SDS011;4185;41.506;24.938;2024-01-06T03:32:56;6.03;;;3.30;;
8293;SDS011;4185;41.506;24.938;2024-01-06T03:35:23;21.20;;;8.43;;
8293;SDS011;4185;41.506;24.938;2024-01-06T03:37:50;13.40;;;5.20;;
8293;SDS011;4185;41.506;24.938;2024-01-06T03:40:17;19.07;;;7.30;;
8293;SDS011;4185;41.506;24.938;2024-01-06T03:42:43;9.20;;;4.00;;
8293;SDS011;4185;41.506;24.938;2024-01-06T03:45:10;9.73;;;4.37;;
8293;SDS011;4185;41.506;24.938;2024-01-06T03:47:38;12.43;;;5.27;;
8293;SDS011;4185;41.506;24.938;2024-01-06T03:50:05;5.77;;;3.50;;
8293;SDS011;4185;41.506;24.938;2024-01-06T03:52:32;9.57;;;3.37;;
8293;SDS011;4185;41.506;24.938;2024-01-06T03:54:59;4.33;;;2.30;;
8293;SDS011;4185;41.506;24.938;2024-01-06T03:57:26;6.80;;;4.03;;
8293;SDS011;4185;41.506;24.938;2024-01-06T03:59:53;6.97;;;3.63;;
8293;SDS011;4185;41.506;24.938;2024-01-06T04:02:20;16.60;;;7.60;;
8293;SDS011;4185;41.506;24.938;2024-01-06T04:04:48;23.77;;;10.23;;
8293;SDS011;4185;41.506;24.938;2024-01-06T04:07:15;4.80;;;3.13;;
8293;SDS011;4185;41.506;24.938;2024-01-06T04:09:42;15.20;;;7.73;;
8293;SDS011;4185;41.506;24.938;2024-01-06T04:12:09;8.23;;;4.80;;
8293;SDS011;4185;41.506;24.938;2024-01-06T04:14:36;15.13;;;6.90;;
8293;SDS011;4185;41.506;24.938;2024-01-06T04:17:03;6.57;;;4.60;;
8293;SDS011;4185;41.506;24.938;2024-01-06T04:19:30;8.17;;;4.87;;
8293;SDS011;4185;41.506;24.938;2024-01-06T04:21:59;12.47;;;6.53;;
8293;SDS011;4185;41.506;24.938;2024-01-06T04:24:26;9.03;;;3.80;;
8293;SDS011;4185;41.506;24.938;2024-01-06T04:26:53;8.67;;;5.90;;
8293;SDS011;4185;41.506;24.938;2024-01-06T04:29:20;16.23;;;8.33;;
8293;SDS011;4185;41.506;24.938;2024-01-06T04:31:46;12.20;;;6.53;;
8293;SDS011;4185;41.506;24.938;2024-01-06T04:34:13;11.80;;;7.77;;
8293;SDS011;4185;41.506;24.938;2024-01-06T04:36:40;7.87;;;5.07;;
8293;SDS011;4185;41.506;24.938;2024-01-06T04:39:08;9.60;;;5.03;;
8293;SDS011;4185;41.506;24.938;2024-01-06T04:41:35;13.53;;;7.27;;
8293;SDS011;4185;41.506;24.938;2024-01-06T04:44:02;10.40;;;6.77;;
8293;SDS011;4185;41.506;24.938;2024-01-06T04:46:28;8.67;;;5.33;;
8293;SDS011;4185;41.506;24.938;2024-01-06T04:48:56;24.80;;;13.30;;
8293;SDS011;4185;41.506;24.938;2024-01-06T04:51:22;11.33;;;6.70;;
8293;SDS011;4185;41.506;24.938;2024-01-06T04:53:49;87.67;;;36.23;;
8293;SDS011;4185;41.506;24.938;2024-01-06T04:56:17;38.97;;;18.63;;
8293;SDS011;4185;41.506;24.938;2024-01-06T04:58:44;36.00;;;18.03;;
8293;SDS011;4185;41.506;24.938;2024-01-06T05:01:11;19.47;;;9.77;;
8293;SDS011;4185;41.506;24.938;2024-01-06T05:03:38;31.07;;;15.87;;
8293;SDS011;4185;41.506;24.938;2024-01-06T05:06:05;14.17;;;7.13;;
8293;SDS011;4185;41.506;24.938;2024-01-06T05:08:32;40.60;;;18.97;;
8293;SDS011;4185;41.506;24.938;2024-01-06T05:10:58;32.63;;;16.27;;
8293;SDS011;4185;41.506;24.938;2024-01-06T05:13:27;62.67;;;20.27;;
8293;SDS011;4185;41.506;24.938;2024-01-06T05:15:54;56.93;;;19.60;;
8293;SDS011;4185;41.506;24.938;2024-01-06T05:18:23;75.63;;;29.40;;
8293;SDS011;4185;41.506;24.938;2024-01-06T05:20:49;58.47;;;22.80;;
8293;SDS011;4185;41.506;24.938;2024-01-06T05:23:16;45.73;;;17.73;;
8293;SDS011;4185;41.506;24.938;2024-01-06T05:25:43;53.23;;;25.63;;
8293;SDS011;4185;41.506;24.938;2024-01-06T05:28:10;35.90;;;16.60;;
8293;SDS011;4185;41.506;24.938;2024-01-06T05:30:38;30.03;;;14.27;;
8293;SDS011;4185;41.506;24.938;2024-01-06T05:33:05;25.37;;;11.23;;
8293;SDS011;4185;41.506;24.938;2024-01-06T05:35:31;31.40;;;14.83;;
8293;SDS011;4185;41.506;24.938;2024-01-06T05:37:59;13.97;;;8.73;;
8293;SDS011;4185;41.506;24.938;2024-01-06T05:40:26;21.47;;;11.10;;
8293;SDS011;4185;41.506;24.938;2024-01-06T05:42:53;26.40;;;16.10;;
8293;SDS011;4185;41.506;24.938;2024-01-06T05:45:21;63.67;;;29.60;;
8293;SDS011;4185;41.506;24.938;2024-01-06T05:47:49;72.50;;;30.83;;
8293;SDS011;4185;41.506;24.938;2024-01-06T05:50:16;34.67;;;17.37;;
8293;SDS011;4185;41.506;24.938;2024-01-06T05:52:43;54.63;;;24.23;;
8293;SDS011;4185;41.506;24.938;2024-01-06T05:55:12;69.83;;;35.13;;
8293;SDS011;4185;41.506;24.938;2024-01-06T05:57:39;34.77;;;16.87;;
8293;SDS011;4185;41.506;24.938;2024-01-06T06:00:07;49.03;;;16.40;;
8293;SDS011;4185;41.506;24.938;2024-01-06T06:02:36;55.17;;;24.43;;
8293;SDS011;4185;41.506;24.938;2024-01-06T06:05:05;44.87;;;20.40;;
8293;SDS011;4185;41.506;24.938;2024-01-06T06:07:32;37.00;;;18.20;;
8293;SDS011;4185;41.506;24.938;2024-01-06T06:10:04;15.20;;;9.57;;
8293;SDS011;4185;41.506;24.938;2024-01-06T06:12:32;30.77;;;17.17;;
8293;SDS011;4185;41.506;24.938;2024-01-06T06:14:59;165.50;;;101.77;;
8293;SDS011;4185;41.506;24.938;2024-01-06T06:17:26;48.87;;;28.00;;
8293;SDS011;4185;41.506;24.938;2024-01-06T06:19:53;44.00;;;22.17;;
8293;SDS011;4185;41.506;24.938;2024-01-06T06:22:21;57.03;;;31.93;;
8293;SDS011;4185;41.506;24.938;2024-01-06T06:24:48;49.97;;;25.57;;
8293;SDS011;4185;41.506;24.938;2024-01-06T06:27:15;102.70;;;40.13;;
8293;SDS011;4185;41.506;24.938;2024-01-06T06:29:41;121.83;;;49.40;;
8293;SDS011;4185;41.506;24.938;2024-01-06T06:32:08;84.13;;;36.80;;
8293;SDS011;4185;41.506;24.938;2024-01-06T06:34:35;55.27;;;27.17;;
8293;SDS011;4185;41.506;24.938;2024-01-06T06:37:02;68.00;;;31.83;;
8293;SDS011;4185;41.506;24.938;2024-01-06T06:39:30;32.53;;;19.23;;
8293;SDS011;4185;41.506;24.938;2024-01-06T06:41:58;47.53;;;24.53;;
8293;SDS011;4185;41.506;24.938;2024-01-06T06:44:24;147.60;;;66.50;;
8293;SDS011;4185;41.506;24.938;2024-01-06T06:46:51;170.70;;;65.80;;
8293;SDS011;4185;41.506;24.938;2024-01-06T06:49:18;75.93;;;34.70;;
8293;SDS011;4185;41.506;24.938;2024-01-06T06:51:45;52.60;;;27.43;;
8293;SDS011;4185;41.506;24.938;2024-01-06T06:54:13;30.73;;;19.37;;
8293;SDS011;4185;41.506;24.938;2024-01-06T06:56:42;51.43;;;25.90;;
8293;SDS011;4185;41.506;24.938;2024-01-06T06:59:09;51.37;;;31.23;;
8293;SDS011;4185;41.506;24.938;2024-01-06T07:01:36;69.90;;;38.43;;
8293;SDS011;4185;41.506;24.938;2024-01-06T07:04:03;91.90;;;45.10;;
8293;SDS011;4185;41.506;24.938;2024-01-06T07:06:30;68.27;;;40.17;;
8293;SDS011;4185;41.506;24.938;2024-01-06T07:08:57;78.37;;;38.97;;
8293;SDS011;4185;41.506;24.938;2024-01-06T07:11:25;125.83;;;80.20;;
8293;SDS011;4185;41.506;24.938;2024-01-06T07:13:54;87.27;;;50.70;;
8293;SDS011;4185;41.506;24.938;2024-01-06T07:16:21;68.47;;;36.57;;
8293;SDS011;4185;41.506;24.938;2024-01-06T07:18:47;94.70;;;51.63;;
8293;SDS011;4185;41.506;24.938;2024-01-06T07:21:14;80.63;;;45.43;;
8293;SDS011;4185;41.506;24.938;2024-01-06T07:23:41;79.47;;;47.87;;
8293;SDS011;4185;41.506;24.938;2024-01-06T07:26:08;80.03;;;45.77;;
8293;SDS011;4185;41.506;24.938;2024-01-06T07:28:35;105.30;;;53.70;;
8293;SDS011;4185;41.506;24.938;2024-01-06T07:31:03;85.27;;;44.50;;
8293;SDS011;4185;41.506;24.938;2024-01-06T07:33:30;133.07;;;66.13;;
8293;SDS011;4185;41.506;24.938;2024-01-06T07:35:57;121.83;;;64.90;;
8293;SDS011;4185;41.506;24.938;2024-01-06T07:38:24;157.37;;;80.30;;
8293;SDS011;4185;41.506;24.938;2024-01-06T07:40:51;178.20;;;89.57;;
8293;SDS011;4185;41.506;24.938;2024-01-06T07:43:19;89.80;;;50.30;;
8293;SDS011;4185;41.506;24.938;2024-01-06T07:45:46;131.67;;;73.70;;
8293;SDS011;4185;41.506;24.938;2024-01-06T07:48:14;67.37;;;42.10;;
8293;SDS011;4185;41.506;24.938;2024-01-06T07:50:41;64.93;;;37.83;;
8293;SDS011;4185;41.506;24.938;2024-01-06T07:53:08;84.30;;;46.53;;
8293;SDS011;4185;41.506;24.938;2024-01-06T07:55:35;88.90;;;50.87;;
8293;SDS011;4185;41.506;24.938;2024-01-06T07:58:02;76.30;;;43.17;;
8293;SDS011;4185;41.506;24.938;2024-01-06T08:00:29;88.67;;;47.30;;
8293;SDS011;4185;41.506;24.938;2024-01-06T08:02:56;115.27;;;58.27;;
8293;SDS011;4185;41.506;24.938;2024-01-06T08:05:24;77.90;;;45.73;;
8293;SDS011;4185;41.506;24.938;2024-01-06T08:07:51;96.00;;;52.67;;
8293;SDS011;4185;41.506;24.938;2024-01-06T08:10:18;121.27;;;65.93;;
8293;SDS011;4185;41.506;24.938;2024-01-06T08:12:46;100.00;;;51.20;;
8293;SDS011;4185;41.506;24.938;2024-01-06T08:15:13;181.20;;;100.40;;
8293;SDS011;4185;41.506;24.938;2024-01-06T08:17:40;78.17;;;42.07;;
8293;SDS011;4185;41.506;24.938;2024-01-06T08:20:08;88.97;;;45.07;;
8293;SDS011;4185;41.506;24.938;2024-01-06T08:22:37;98.40;;;48.80;;
8293;SDS011;4185;41.506;24.938;2024-01-06T08:25:04;79.13;;;43.93;;
8293;SDS011;4185;41.506;24.938;2024-01-06T08:27:32;107.20;;;53.40;;
8293;SDS011;4185;41.506;24.938;2024-01-06T08:29:59;68.80;;;36.80;;
8293;SDS011;4185;41.506;24.938;2024-01-06T08:32:26;75.00;;;40.87;;
8293;SDS011;4185;41.506;24.938;2024-01-06T08:34:53;67.80;;;40.70;;
8293;SDS011;4185;41.506;24.938;2024-01-06T08:37:19;82.20;;;46.50;;
8293;SDS011;4185;41.506;24.938;2024-01-06T08:39:48;102.20;;;55.20;;
8293;SDS011;4185;41.506;24.938;2024-01-06T08:42:14;97.93;;;52.83;;
8293;SDS011;4185;41.506;24.938;2024-01-06T08:44:41;92.93;;;50.03;;
8293;SDS011;4185;41.506;24.938;2024-01-06T08:47:08;92.47;;;51.87;;
8293;SDS011;4185;41.506;24.938;2024-01-06T08:49:35;118.43;;;61.33;;
8293;SDS011;4185;41.506;24.938;2024-01-06T08:52:02;110.93;;;59.83;;
8293;SDS011;4185;41.506;24.938;2024-01-06T08:54:30;83.70;;;49.77;;
8293;SDS011;4185;41.506;24.938;2024-01-06T08:56:58;78.70;;;45.63;;
8293;SDS011;4185;41.506;24.938;2024-01-06T08:59:25;93.37;;;52.87;;
8293;SDS011;4185;41.506;24.938;2024-01-06T09:01:52;115.53;;;60.50;;
8293;SDS011;4185;41.506;24.938;2024-01-06T09:04:19;90.30;;;49.00;;
8293;SDS011;4185;41.506;24.938;2024-01-06T09:06:45;110.33;;;56.37;;
8293;SDS011;4185;41.506;24.938;2024-01-06T09:09:13;91.47;;;51.30;;
8293;SDS011;4185;41.506;24.938;2024-01-06T09:11:39;33.23;;;22.57;;
8293;SDS011;4185;41.506;24.938;2024-01-06T09:14:08;62.27;;;36.13;;
8293;SDS011;4185;41.506;24.938;2024-01-06T09:16:36;69.93;;;39.17;;
8293;SDS011;4185;41.506;24.938;2024-01-06T09:19:02;16.37;;;10.13;;
8293;SDS011;4185;41.506;24.938;2024-01-06T09:21:29;26.53;;;14.20;;
8293;SDS011;4185;41.506;24.938;2024-01-06T09:23:56;17.83;;;11.30;;
8293;SDS011;4185;41.506;24.938;2024-01-06T09:26:23;16.00;;;10.07;;
8293;SDS011;4185;41.506;24.938;2024-01-06T09:28:50;29.97;;;17.30;;
8293;SDS011;4185;41.506;24.938;2024-01-06T09:31:18;10.40;;;6.13;;
8293;SDS011;4185;41.506;24.938;2024-01-06T09:33:45;10.87;;;6.97;;
8293;SDS011;4185;41.506;24.938;2024-01-06T09:36:11;8.40;;;4.90;;
8293;SDS011;4185;41.506;24.938;2024-01-06T09:38:39;10.20;;;5.67;;
8293;SDS011;4185;41.506;24.938;2024-01-06T09:41:05;8.40;;;4.50;;
8293;SDS011;4185;41.506;24.938;2024-01-06T09:43:32;7.67;;;4.50;;
8293;SDS011;4185;41.506;24.938;2024-01-06T09:46:02;12.27;;;6.80;;
8293;SDS011;4185;41.506;24.938;2024-01-06T09:48:35;10.60;;;7.03;;
8293;SDS011;4185;41.506;24.938;2024-01-06T09:51:07;4.63;;;3.17;;
8293;SDS011;4185;41.506;24.938;2024-01-06T09:53:39;6.80;;;5.17;;
8293;SDS011;4185;41.506;24.938;2024-01-06T09:56:14;20.23;;;8.83;;
8293;SDS011;4185;41.506;24.938;2024-01-06T09:58:42;15.20;;;7.13;;
8293;SDS011;4185;41.506;24.938;2024-01-06T10:01:10;3.57;;;2.90;;
8293;SDS011;4185;41.506;24.938;2024-01-06T10:03:41;7.37;;;3.63;;
8293;SDS011;4185;41.506;24.938;2024-01-06T10:06:07;8.90;;;4.57;;
8293;SDS011;4185;41.506;24.938;2024-01-06T10:08:35;5.60;;;3.57;;
8293;SDS011;4185;41.506;24.938;2024-01-06T10:11:02;7.90;;;4.77;;
8293;SDS011;4185;41.506;24.938;2024-01-06T10:13:29;9.17;;;5.43;;
8293;SDS011;4185;41.506;24.938;2024-01-06T10:15:56;7.43;;;3.30;;
8293;SDS011;4185;41.506;24.938;2024-01-06T10:18:24;5.37;;;3.13;;
8293;SDS011;4185;41.506;24.938;2024-01-06T10:20:53;11.93;;;5.63;;
8293;SDS011;4185;41.506;24.938;2024-01-06T10:23:22;6.30;;;3.47;;
8293;SDS011;4185;41.506;24.938;2024-01-06T10:25:51;9.37;;;4.07;;
8293;SDS011;4185;41.506;24.938;2024-01-06T10:28:18;6.07;;;3.47;;
8293;SDS011;4185;41.506;24.938;2024-01-06T10:30:47;6.77;;;4.17;;
8293;SDS011;4185;41.506;24.938;2024-01-06T10:33:14;8.30;;;3.57;;
8293;SDS011;4185;41.506;24.938;2024-01-06T10:35:41;7.00;;;3.00;;
8293;SDS011;4185;41.506;24.938;2024-01-06T10:38:11;27.23;;;11.10;;
8293;SDS011;4185;41.506;24.938;2024-01-06T10:40:37;9.40;;;5.27;;
8293;SDS011;4185;41.506;24.938;2024-01-06T10:43:04;7.83;;;5.63;;
8293;SDS011;4185;41.506;24.938;2024-01-06T10:45:32;7.40;;;3.17;;
8293;SDS011;4185;41.506;24.938;2024-01-06T10:47:59;4.03;;;2.53;;
8293;SDS011;4185;41.506;24.938;2024-01-06T10:50:28;8.03;;;4.10;;
8293;SDS011;4185;41.506;24.938;2024-01-06T10:52:56;4.63;;;2.27;;
8293;SDS011;4185;41.506;24.938;2024-01-06T10:55:25;7.77;;;2.30;;
8293;SDS011;4185;41.506;24.938;2024-01-06T10:57:53;4.80;;;2.40;;
8293;SDS011;4185;41.506;24.938;2024-01-06T11:00:21;5.27;;;3.40;;
8293;SDS011;4185;41.506;24.938;2024-01-06T11:02:48;5.60;;;2.77;;
8293;SDS011;4185;41.506;24.938;2024-01-06T11:05:17;7.93;;;5.67;;
8293;SDS011;4185;41.506;24.938;2024-01-06T11:07:46;5.30;;;2.20;;
8293;SDS011;4185;41.506;24.938;2024-01-06T11:10:17;5.17;;;3.00;;
8293;SDS011;4185;41.506;24.938;2024-01-06T11:12:46;4.77;;;2.30;;
8293;SDS011;4185;41.506;24.938;2024-01-06T11:15:39;5.90;;;2.80;;
8293;SDS011;4185;41.506;24.938;2024-01-06T11:18:08;9.37;;;4.00;;
8293;SDS011;4185;41.506;24.938;2024-01-06T11:20:35;4.43;;;2.80;;
8293;SDS011;4185;41.506;24.938;2024-01-06T11:23:17;5.60;;;2.00;;
8293;SDS011;4185;41.506;24.938;2024-01-06T11:25:45;5.77;;;2.90;;
8293;SDS011;4185;41.506;24.938;2024-01-06T11:28:16;4.00;;;2.83;;
8293;SDS011;4185;41.506;24.938;2024-01-06T11:30:43;5.00;;;2.87;;
8293;SDS011;4185;41.506;24.938;2024-01-06T11:33:10;9.17;;;5.23;;
8293;SDS011;4185;41.506;24.938;2024-01-06T11:35:37;4.03;;;2.53;;
8293;SDS011;4185;41.506;24.938;2024-01-06T11:38:06;10.43;;;3.43;;
8293;SDS011;4185;41.506;24.938;2024-01-06T11:40:34;9.93;;;5.00;;
8293;SDS011;4185;41.506;24.938;2024-01-06T11:43:03;3.57;;;2.20;;
8293;SDS011;4185;41.506;24.938;2024-01-06T11:45:33;6.23;;;2.83;;
8293;SDS011;4185;41.506;24.938;2024-01-06T11:48:00;10.90;;;6.03;;
8293;SDS011;4185;41.506;24.938;2024-01-06T11:50:29;16.37;;;8.07;;
8293;SDS011;4185;41.506;24.938;2024-01-06T11:52:56;7.83;;;4.43;;
8293;SDS011;4185;41.506;24.938;2024-01-06T11:55:25;14.73;;;6.40;;
8293;SDS011;4185;41.506;24.938;2024-01-06T11:57:53;7.50;;;4.03;;
8293;SDS011;4185;41.506;24.938;2024-01-06T12:00:20;11.47;;;5.87;;
8293;SDS011;4185;41.506;24.938;2024-01-06T12:02:49;7.77;;;3.90;;
8293;SDS011;4185;41.506;24.938;2024-01-06T12:05:17;8.17;;;4.33;;
8293;SDS011;4185;41.506;24.938;2024-01-06T12:07:52;14.93;;;6.70;;
8293;SDS011;4185;41.506;24.938;2024-01-06T12:10:20;9.23;;;5.17;;
8293;SDS011;4185;41.506;24.938;2024-01-06T12:12:54;7.80;;;3.50;;
8293;SDS011;4185;41.506;24.938;2024-01-06T12:15:23;5.20;;;3.20;;
8293;SDS011;4185;41.506;24.938;2024-01-06T12:17:51;5.70;;;2.50;;
8293;SDS011;4185;41.506;24.938;2024-01-06T12:20:18;4.13;;;2.80;;
8293;SDS011;4185;41.506;24.938;2024-01-06T12:22:45;8.13;;;4.37;;
8293;SDS011;4185;41.506;24.938;2024-01-06T12:25:12;5.73;;;3.13;;
8293;SDS011;4185;41.506;24.938;2024-01-06T12:27:42;6.93;;;4.00;;
8293;SDS011;4185;41.506;24.938;2024-01-06T12:30:12;6.63;;;4.30;;
8293;SDS011;4185;41.506;24.938;2024-01-06T12:32:42;7.23;;;3.87;;
8293;SDS011;4185;41.506;24.938;2024-01-06T12:35:10;7.77;;;4.10;;
8293;SDS011;4185;41.506;24.938;2024-01-06T12:37:38;32.60;;;14.70;;
8293;SDS011;4185;41.506;24.938;2024-01-06T12:40:05;13.60;;;6.20;;
8293;SDS011;4185;41.506;24.938;2024-01-06T12:42:35;5.70;;;3.57;;
8293;SDS011;4185;41.506;24.938;2024-01-06T12:45:03;4.47;;;2.17;;
8293;SDS011;4185;41.506;24.938;2024-01-06T12:47:30;5.50;;;3.30;;
8293;SDS011;4185;41.506;24.938;2024-01-06T12:49:57;6.37;;;3.50;;
8293;SDS011;4185;41.506;24.938;2024-01-06T12:52:25;7.07;;;4.00;;
8293;SDS011;4185;41.506;24.938;2024-01-06T12:54:52;3.93;;;2.30;;
8293;SDS011;4185;41.506;24.938;2024-01-06T12:57:19;4.00;;;2.10;;
8293;SDS011;4185;41.506;24.938;2024-01-06T12:59:46;5.17;;;2.83;;
8293;SDS011;4185;41.506;24.938;2024-01-06T13:02:13;9.07;;;4.60;;
8293;SDS011;4185;41.506;24.938;2024-01-06T13:04:39;13.37;;;6.13;;
8293;SDS011;4185;41.506;24.938;2024-01-06T13:07:06;6.50;;;3.07;;
8293;SDS011;4185;41.506;24.938;2024-01-06T13:09:34;7.30;;;4.47;;
8293;SDS011;4185;41.506;24.938;2024-01-06T13:12:01;5.37;;;2.57;;
8293;SDS011;4185;41.506;24.938;2024-01-06T13:14:28;7.77;;;3.33;;
8293;SDS011;4185;41.506;24.938;2024-01-06T13:16:56;7.50;;;3.43;;
8293;SDS011;4185;41.506;24.938;2024-01-06T13:19:25;4.97;;;3.50;;
8293;SDS011;4185;41.506;24.938;2024-01-06T13:21:52;7.43;;;4.00;;
8293;SDS011;4185;41.506;24.938;2024-01-06T13:24:19;7.13;;;3.60;;
8293;SDS011;4185;41.506;24.938;2024-01-06T13:26:47;5.60;;;3.37;;
8293;SDS011;4185;41.506;24.938;2024-01-06T13:29:14;7.37;;;4.63;;
8293;SDS011;4185;41.506;24.938;2024-01-06T13:31:40;6.73;;;2.77;;
8293;SDS011;4185;41.506;24.938;2024-01-06T13:34:07;6.90;;;3.80;;
8293;SDS011;4185;41.506;24.938;2024-01-06T13:36:34;8.23;;;3.63;;
8293;SDS011;4185;41.506;24.938;2024-01-06T13:39:01;7.03;;;4.30;;
8293;SDS011;4185;41.506;24.938;2024-01-06T13:41:29;8.23;;;4.90;;
8293;SDS011;4185;41.506;24.938;2024-01-06T13:43:58;6.63;;;4.13;;
8293;SDS011;4185;41.506;24.938;2024-01-06T13:46:24;6.27;;;3.80;;
8293;SDS011;4185;41.506;24.938;2024-01-06T13:48:52;5.73;;;3.40;;
8293;SDS011;4185;41.506;24.938;2024-01-06T13:51:18;5.77;;;2.83;;
8293;SDS011;4185;41.506;24.938;2024-01-06T13:53:45;6.10;;;3.57;;
8293;SDS011;4185;41.506;24.938;2024-01-06T13:56:12;5.47;;;3.47;;
8293;SDS011;4185;41.506;24.938;2024-01-06T13:58:39;20.97;;;7.80;;
8293;SDS011;4185;41.506;24.938;2024-01-06T14:01:07;15.07;;;9.80;;
8293;SDS011;4185;41.506;24.938;2024-01-06T14:03:36;11.80;;;9.33;;
8293;SDS011;4185;41.506;24.938;2024-01-06T14:06:03;16.90;;;12.37;;
8293;SDS011;4185;41.506;24.938;2024-01-06T14:08:31;7.67;;;3.37;;
8293;SDS011;4185;41.506;24.938;2024-01-06T14:10:58;26.60;;;19.87;;
8293;SDS011;4185;41.506;24.938;2024-01-06T14:13:25;9.77;;;5.10;;
8293;SDS011;4185;41.506;24.938;2024-01-06T14:15:52;17.83;;;13.30;;
8293;SDS011;4185;41.506;24.938;2024-01-06T14:18:21;7.80;;;4.03;;
8293;SDS011;4185;41.506;24.938;2024-01-06T14:20:48;11.00;;;4.87;;
8293;SDS011;4185;41.506;24.938;2024-01-06T14:23:16;12.80;;;9.20;;
8293;SDS011;4185;41.506;24.938;2024-01-06T14:25:44;8.53;;;4.00;;
8293;SDS011;4185;41.506;24.938;2024-01-06T14:28:11;12.67;;;6.80;;
8293;SDS011;4185;41.506;24.938;2024-01-06T14:30:38;12.13;;;6.17;;
8293;SDS011;4185;41.506;24.938;2024-01-06T14:33:04;39.43;;;17.43;;
8293;SDS011;4185;41.506;24.938;2024-01-06T14:35:32;23.63;;;12.60;;
8293;SDS011;4185;41.506;24.938;2024-01-06T14:37:59;14.37;;;7.60;;
8293;SDS011;4185;41.506;24.938;2024-01-06T14:40:26;18.03;;;10.67;;
8293;SDS011;4185;41.506;24.938;2024-01-06T14:42:53;13.87;;;6.77;;
8293;SDS011;4185;41.506;24.938;2024-01-06T14:45:19;9.90;;;5.00;;
8293;SDS011;4185;41.506;24.938;2024-01-06T14:47:47;9.10;;;4.63;;
8293;SDS011;4185;41.506;24.938;2024-01-06T14:50:16;14.80;;;8.43;;